sensor_id;sensor_type;location;lat;lon;timestamp;pressure;altitude;pressure_sealevel;temperature;humidity
25156;BME280;21913;52.456;13.634;2022-08-18T00:03:49;99935.38;;;23.91;62.80
25156;BME280;21913;52.456;13.634;2022-08-18T00:08:51;99934.53;;;23.90;62.90
25156;BME280;21913;52.456;13.634;2022-08-18T00:13:52;99939.91;;;23.88;62.92
25156;BME280;21913;52.456;13.634;2022-08-18T00:18:54;99943.50;;;23.87;63.16
25156;BME280;21913;52.456;13.634;2022-08-18T00:23:55;99956.72;;;23.87;63.17
25156;BME280;21913;52.456;13.634;2022-08-18T00:28:57;99955.88;;;23.87;63.07
25156;BME280;21913;52.456;13.634;2022-08-18T00:33:58;99948.84;;;23.86;63.03
25156;BME280;21913;52.456;13.634;2022-08-18T00:39:00;99934.78;;;23.85;63.06
25156;BME280;21913;52.456;13.634;2022-08-18T00:44:02;99948.09;;;23.84;63.28
25156;BME280;21913;52.456;13.634;2022-08-18T00:49:04;99950.75;;;23.84;63.17
25156;BME280;21913;52.456;13.634;2022-08-18T00:54:16;99943.75;;;23.83;63.06
25156;BME280;21913;52.456;13.634;2022-08-18T01:04:32;99933.28;;;23.81;63.43
25156;BME280;21913;52.456;13.634;2022-08-18T01:09:35;99943.84;;;23.81;63.49
25156;BME280;21913;52.456;13.634;2022-08-18T01:14:37;99940.31;;;23.81;63.33
25156;BME280;21913;52.456;13.634;2022-08-18T01:19:38;99939.56;;;23.79;63.30
25156;BME280;21913;52.456;13.634;2022-08-18T01:24:40;99936.09;;;23.78;63.46
25156;BME280;21913;52.456;13.634;2022-08-18T01:29:51;99934.38;;;23.77;63.43
25156;BME280;21913;52.456;13.634;2022-08-18T01:34:52;99927.41;;;23.76;63.41
25156;BME280;21913;52.456;13.634;2022-08-18T01:39:54;99930.03;;;23.76;63.41
25156;BME280;21913;52.456;13.634;2022-08-18T01:44:56;99929.16;;;23.76;63.40
25156;BME280;21913;52.456;13.634;2022-08-18T01:49:57;99943.31;;;23.75;63.46
25156;BME280;21913;52.456;13.634;2022-08-18T01:54:59;99933.69;;;23.74;63.60
25156;BME280;21913;52.456;13.634;2022-08-18T02:00:01;99939.94;;;23.73;63.69
25156;BME280;21913;52.456;13.634;2022-08-18T02:05:18;99944.25;;;23.74;63.62
25156;BME280;21913;52.456;13.634;2022-08-18T02:10:20;99950.50;;;23.73;63.63
25156;BME280;21913;52.456;13.634;2022-08-18T02:15:21;99947.00;;;23.72;63.52
25156;BME280;21913;52.456;13.634;2022-08-18T02:20:24;99950.59;;;23.71;63.65
25156;BME280;21913;52.456;13.634;2022-08-18T02:25:25;99946.22;;;23.70;63.71
25156;BME280;21913;52.456;13.634;2022-08-18T02:30:27;99930.47;;;23.69;63.66
25156;BME280;21913;52.456;13.634;2022-08-18T02:35:28;99924.31;;;23.68;63.73
25156;BME280;21913;52.456;13.634;2022-08-18T02:40:31;99926.97;;;23.68;63.63
25156;BME280;21913;52.456;13.634;2022-08-18T02:45:32;99927.06;;;23.67;63.81
25156;BME280;21913;52.456;13.634;2022-08-18T02:50:34;99935.00;;;23.67;63.80
25156;BME280;21913;52.456;13.634;2022-08-18T02:55:35;99923.56;;;23.66;63.91
25156;BME280;21913;52.456;13.634;2022-08-18T03:00:37;99918.34;;;23.65;63.83
25156;BME280;21913;52.456;13.634;2022-08-18T03:05:38;99930.66;;;23.66;63.75
25156;BME280;21913;52.456;13.634;2022-08-18T03:10:40;99929.88;;;23.64;63.98
25156;BME280;21913;52.456;13.634;2022-08-18T03:15:41;99935.16;;;23.64;63.94
25156;BME280;21913;52.456;13.634;2022-08-18T03:20:43;99942.22;;;23.63;63.72
25156;BME280;21913;52.456;13.634;2022-08-18T03:25:47;99939.63;;;23.61;64.00
25156;BME280;21913;52.456;13.634;2022-08-18T03:30:48;99945.88;;;23.60;64.02
25156;BME280;21913;52.456;13.634;2022-08-18T03:35:50;99938.78;;;23.61;64.01
25156;BME280;21913;52.456;13.634;2022-08-18T03:40:51;99930.94;;;23.59;64.03
25156;BME280;21913;52.456;13.634;2022-08-18T03:45:53;99950.28;;;23.60;64.02
25156;BME280;21913;52.456;13.634;2022-08-18T03:51:02;99959.06;;;23.60;64.17
25156;BME280;21913;52.456;13.634;2022-08-18T03:56:10;99950.34;;;23.58;64.01
25156;BME280;21913;52.456;13.634;2022-08-18T04:01:18;99954.78;;;23.58;64.20
25156;BME280;21913;52.456;13.634;2022-08-18T04:06:22;99953.94;;;23.57;64.10
25156;BME280;21913;52.456;13.634;2022-08-18T04:11:24;99948.75;;;23.56;64.35
25156;BME280;21913;52.456;13.634;2022-08-18T04:16:27;99950.53;;;23.55;64.18
25156;BME280;21913;52.456;13.634;2022-08-18T04:21:35;99956.69;;;23.56;64.19
25156;BME280;21913;52.456;13.634;2022-08-18T04:26:42;99958.53;;;23.54;64.25
25156;BME280;21913;52.456;13.634;2022-08-18T04:31:44;99963.81;;;23.54;64.22
25156;BME280;21913;52.456;13.634;2022-08-18T04:36:46;99969.09;;;23.54;64.36
25156;BME280;21913;52.456;13.634;2022-08-18T04:41:49;99962.09;;;23.53;64.14
25156;BME280;21913;52.456;13.634;2022-08-18T04:46:52;99967.38;;;23.53;64.36
25156;BME280;21913;52.456;13.634;2022-08-18T04:51:54;99968.34;;;23.52;64.31
25156;BME280;21913;52.456;13.634;2022-08-18T04:56:56;99962.19;;;23.51;64.33
25156;BME280;21913;52.456;13.634;2022-08-18T05:01:59;99970.13;;;23.51;64.49
25156;BME280;21913;52.456;13.634;2022-08-18T05:07:05;99973.72;;;23.50;64.45
25156;BME280;21913;52.456;13.634;2022-08-18T05:12:09;99979.94;;;23.49;64.53
25156;BME280;21913;52.456;13.634;2022-08-18T05:17:13;99982.56;;;23.49;64.44
25156;BME280;21913;52.456;13.634;2022-08-18T05:22:15;99999.25;;;23.50;64.38
25156;BME280;21913;52.456;13.634;2022-08-18T05:27:17;100000.19;;;23.49;64.50
25156;BME280;21913;52.456;13.634;2022-08-18T05:32:18;99987.91;;;23.48;64.60
25156;BME280;21913;52.456;13.634;2022-08-18T05:37:28;99991.41;;;23.48;64.47
25156;BME280;21913;52.456;13.634;2022-08-18T05:42:36;99989.69;;;23.47;64.50
25156;BME280;21913;52.456;13.634;2022-08-18T05:47:38;99993.28;;;23.46;64.60
25156;BME280;21913;52.456;13.634;2022-08-18T05:52:49;99997.63;;;23.47;64.48
25156;BME280;21913;52.456;13.634;2022-08-18T05:58:02;99986.31;;;23.45;64.62
25156;BME280;21913;52.456;13.634;2022-08-18T06:03:11;99994.22;;;23.45;64.57
25156;BME280;21913;52.456;13.634;2022-08-18T06:08:16;99999.59;;;23.44;64.76
25156;BME280;21913;52.456;13.634;2022-08-18T06:13:19;100004.00;;;23.43;64.66
25156;BME280;21913;52.456;13.634;2022-08-18T06:24:07;100025.22;;;23.42;64.57
25156;BME280;21913;52.456;13.634;2022-08-18T06:39:47;100024.34;;;23.41;64.81
25156;BME280;21913;52.456;13.634;2022-08-18T06:44:54;100034.06;;;23.41;64.88
25156;BME280;21913;52.456;13.634;2022-08-18T06:55:31;100038.59;;;23.39;64.70
25156;BME280;21913;52.456;13.634;2022-08-18T07:00:43;100038.59;;;23.39;64.83
25156;BME280;21913;52.456;13.634;2022-08-18T07:11:56;100042.31;;;23.34;64.90
25156;BME280;21913;52.456;13.634;2022-08-18T07:16:34;100044.88;;;23.36;64.94
25156;BME280;21913;52.456;13.634;2022-08-18T07:22:13;100051.00;;;23.36;64.78
25156;BME280;21913;52.456;13.634;2022-08-18T07:27:16;100049.28;;;23.35;64.83
25156;BME280;21913;52.456;13.634;2022-08-18T07:32:20;100036.19;;;23.34;65.06
25156;BME280;21913;52.456;13.634;2022-08-18T07:37:45;100052.03;;;23.34;65.09
25156;BME280;21913;52.456;13.634;2022-08-18T07:42:59;100043.25;;;23.33;64.92
25156;BME280;21913;52.456;13.634;2022-08-18T07:48:09;100045.28;;;23.28;65.06
25156;BME280;21913;52.456;13.634;2022-08-18T07:53:49;100046.28;;;23.26;64.76
25156;BME280;21913;52.456;13.634;2022-08-18T07:59:24;100051.41;;;23.29;64.54
25156;BME280;21913;52.456;13.634;2022-08-18T08:10:12;100039.06;;;23.29;64.42
25156;BME280;21913;52.456;13.634;2022-08-18T08:15:44;100042.56;;;23.30;64.56
25156;BME280;21913;52.456;13.634;2022-08-18T08:20:54;100044.34;;;23.29;64.51
25156;BME280;21913;52.456;13.634;2022-08-18T08:26:03;100032.94;;;23.29;64.66
25156;BME280;21913;52.456;13.634;2022-08-18T08:36:49;100052.25;;;23.29;64.75
25156;BME280;21913;52.456;13.634;2022-08-18T08:47:03;100068.00;;;23.31;64.69
25156;BME280;21913;52.456;13.634;2022-08-18T08:52:15;100066.31;;;23.30;64.69
25156;BME280;21913;52.456;13.634;2022-08-18T08:57:24;100069.03;;;23.28;64.69
25156;BME280;21913;52.456;13.634;2022-08-18T09:23:43;100082.28;;;23.27;64.74
25156;BME280;21913;52.456;13.634;2022-08-18T09:29:13;100088.47;;;23.27;64.88
25156;BME280;21913;52.456;13.634;2022-08-18T09:34:41;100077.94;;;23.26;64.88
25156;BME280;21913;52.456;13.634;2022-08-18T09:44:59;100090.28;;;23.25;65.03
25156;BME280;21913;52.456;13.634;2022-08-18T10:00:27;100092.94;;;23.25;64.96
25156;BME280;21913;52.456;13.634;2022-08-18T10:05:29;100086.91;;;23.23;64.95
25156;BME280;21913;52.456;13.634;2022-08-18T10:10:57;100096.50;;;23.24;65.11
25156;BME280;21913;52.456;13.634;2022-08-18T10:37:10;100095.75;;;23.22;65.03
25156;BME280;21913;52.456;13.634;2022-08-18T10:47:30;100101.09;;;23.21;65.19
25156;BME280;21913;52.456;13.634;2022-08-18T11:03:20;100095.81;;;23.21;65.11
25156;BME280;21913;52.456;13.634;2022-08-18T11:08:49;100094.09;;;23.20;65.13
25156;BME280;21913;52.456;13.634;2022-08-18T11:19:13;100090.63;;;23.19;65.13
25156;BME280;21913;52.456;13.634;2022-08-18T11:24:24;100093.25;;;23.19;65.15
25156;BME280;21913;52.456;13.634;2022-08-18T11:29:33;100087.13;;;23.19;65.30
25156;BME280;21913;52.456;13.634;2022-08-18T11:34:44;100073.09;;;23.18;65.17
25156;BME280;21913;52.456;13.634;2022-08-18T11:39:49;100069.59;;;23.18;65.21
25156;BME280;21913;52.456;13.634;2022-08-18T11:44:54;100067.81;;;23.18;65.48
25156;BME280;21913;52.456;13.634;2022-08-18T11:50:25;100066.00;;;23.19;65.30
25156;BME280;21913;52.456;13.634;2022-08-18T11:55:29;100059.03;;;23.18;65.41
25156;BME280;21913;52.456;13.634;2022-08-18T12:05:41;100044.13;;;23.17;65.39
25156;BME280;21913;52.456;13.634;2022-08-18T12:10:43;100048.56;;;23.16;65.42
25156;BME280;21913;52.456;13.634;2022-08-18T12:15:44;100050.31;;;23.16;65.41
25156;BME280;21913;52.456;13.634;2022-08-18T12:20:48;100050.31;;;23.16;65.50
25156;BME280;21913;52.456;13.634;2022-08-18T12:25:49;100048.63;;;23.15;65.39
25156;BME280;21913;52.456;13.634;2022-08-18T12:30:52;100035.44;;;23.15;65.63
25156;BME280;21913;52.456;13.634;2022-08-18T12:35:53;100022.22;;;23.15;65.49
25156;BME280;21913;52.456;13.634;2022-08-18T12:40:55;100030.16;;;23.15;65.56
25156;BME280;21913;52.456;13.634;2022-08-18T12:45:57;100022.19;;;23.16;65.34
25156;BME280;21913;52.456;13.634;2022-08-18T12:50:59;100022.22;;;23.15;65.40
25156;BME280;21913;52.456;13.634;2022-08-18T12:56:01;100034.50;;;23.16;65.38
25156;BME280;21913;52.456;13.634;2022-08-18T13:01:02;100038.06;;;23.15;65.33
25156;BME280;21913;52.456;13.634;2022-08-18T13:06:04;100060.97;;;23.14;65.46
25156;BME280;21913;52.456;13.634;2022-08-18T13:11:06;100053.06;;;23.14;65.56
25156;BME280;21913;52.456;13.634;2022-08-18T13:16:08;100049.56;;;23.14;65.59
25156;BME280;21913;52.456;13.634;2022-08-18T13:21:12;100031.09;;;23.14;65.59
25156;BME280;21913;52.456;13.634;2022-08-18T13:26:24;100015.25;;;23.14;65.61
25156;BME280;21913;52.456;13.634;2022-08-18T13:31:26;100010.91;;;23.13;65.63
25156;BME280;21913;52.456;13.634;2022-08-18T13:36:29;100009.13;;;23.13;65.57
25156;BME280;21913;52.456;13.634;2022-08-18T13:41:31;100011.00;;;23.11;65.72
25156;BME280;21913;52.456;13.634;2022-08-18T13:46:32;99997.81;;;23.11;65.59
25156;BME280;21913;52.456;13.634;2022-08-18T13:51:34;100002.19;;;23.10;65.70
25156;BME280;21913;52.456;13.634;2022-08-18T13:56:35;99995.16;;;23.11;65.71
25156;BME280;21913;52.456;13.634;2022-08-18T14:01:37;99991.66;;;23.10;65.46
25156;BME280;21913;52.456;13.634;2022-08-18T14:06:41;99993.38;;;23.12;65.77
25156;BME280;21913;52.456;13.634;2022-08-18T14:11:42;99971.41;;;23.11;65.67
25156;BME280;21913;52.456;13.634;2022-08-18T14:16:44;99971.41;;;23.11;65.69
25156;BME280;21913;52.456;13.634;2022-08-18T14:21:48;99962.38;;;23.15;64.05
25156;BME280;21913;52.456;13.634;2022-08-18T14:26:50;99963.94;;;23.19;62.76
25156;BME280;21913;52.456;13.634;2022-08-18T14:31:52;99955.03;;;23.22;62.37
25156;BME280;21913;52.456;13.634;2022-08-18T14:36:53;99957.66;;;23.22;61.34
25156;BME280;21913;52.456;13.634;2022-08-18T14:41:55;99956.72;;;23.23;61.66
25156;BME280;21913;52.456;13.634;2022-08-18T14:46:58;99959.34;;;23.23;61.31
25156;BME280;21913;52.456;13.634;2022-08-18T14:52:00;99961.16;;;23.22;60.72
25156;BME280;21913;52.456;13.634;2022-08-18T14:57:03;99953.28;;;23.21;60.02
25156;BME280;21913;52.456;13.634;2022-08-18T15:02:07;99954.22;;;23.20;60.24
25156;BME280;21913;52.456;13.634;2022-08-18T15:07:09;99965.72;;;23.19;60.89
25156;BME280;21913;52.456;13.634;2022-08-18T15:12:11;99971.09;;;23.17;61.32
25156;BME280;21913;52.456;13.634;2022-08-18T15:17:12;99972.88;;;23.17;62.01
25156;BME280;21913;52.456;13.634;2022-08-18T15:22:15;99972.09;;;23.15;62.18
25156;BME280;21913;52.456;13.634;2022-08-18T15:27:16;99965.03;;;23.15;61.27
25156;BME280;21913;52.456;13.634;2022-08-18T15:32:18;99977.22;;;23.18;61.58
25156;BME280;21913;52.456;13.634;2022-08-18T15:37:19;99979.06;;;23.16;61.59
25156;BME280;21913;52.456;13.634;2022-08-18T15:42:22;99977.38;;;23.15;61.93
25156;BME280;21913;52.456;13.634;2022-08-18T15:47:24;99978.31;;;23.14;62.16
25156;BME280;21913;52.456;13.634;2022-08-18T15:52:26;99976.59;;;23.13;62.32
25156;BME280;21913;52.456;13.634;2022-08-18T15:57:28;99968.78;;;23.11;62.56
25156;BME280;21913;52.456;13.634;2022-08-18T16:02:29;99974.13;;;23.09;62.82
25156;BME280;21913;52.456;13.634;2022-08-18T16:07:31;99964.50;;;23.08;63.00
25156;BME280;21913;52.456;13.634;2022-08-18T16:12:33;99968.09;;;23.07;63.08
25156;BME280;21913;52.456;13.634;2022-08-18T16:17:34;99962.81;;;23.07;63.17
25156;BME280;21913;52.456;13.634;2022-08-18T16:22:37;99967.22;;;23.07;63.30
25156;BME280;21913;52.456;13.634;2022-08-18T16:27:39;99966.38;;;23.06;63.36
25156;BME280;21913;52.456;13.634;2022-08-18T16:32:41;99963.75;;;23.06;63.59
25156;BME280;21913;52.456;13.634;2022-08-18T16:37:43;99947.06;;;23.06;63.48
25156;BME280;21913;52.456;13.634;2022-08-18T16:42:46;99939.19;;;23.04;63.58
25156;BME280;21913;52.456;13.634;2022-08-18T16:47:48;99944.47;;;23.04;63.57
25156;BME280;21913;52.456;13.634;2022-08-18T16:52:49;99955.03;;;23.04;63.84
25156;BME280;21913;52.456;13.634;2022-08-18T16:57:52;99940.94;;;23.05;63.85
25156;BME280;21913;52.456;13.634;2022-08-18T17:02:54;99941.84;;;23.04;63.80
25156;BME280;21913;52.456;13.634;2022-08-18T17:07:55;99938.34;;;23.04;63.84
25156;BME280;21913;52.456;13.634;2022-08-18T17:12:57;99940.16;;;23.03;63.91
25156;BME280;21913;52.456;13.634;2022-08-18T17:17:59;99938.34;;;23.04;63.98
25156;BME280;21913;52.456;13.634;2022-08-18T17:23:01;99939.19;;;23.04;63.98
25156;BME280;21913;52.456;13.634;2022-08-18T17:28:03;99935.72;;;23.04;64.13
25156;BME280;21913;52.456;13.634;2022-08-18T17:33:09;99947.13;;;23.04;64.07
25156;BME280;21913;52.456;13.634;2022-08-18T17:38:35;99939.19;;;23.04;63.96
25156;BME280;21913;52.456;13.634;2022-08-18T17:43:40;99940.22;;;23.02;64.18
25156;BME280;21913;52.456;13.634;2022-08-18T17:48:51;99933.16;;;23.02;64.25
25156;BME280;21913;52.456;13.634;2022-08-18T17:53:56;99934.09;;;23.01;64.23
25156;BME280;21913;52.456;13.634;2022-08-18T17:59:08;99926.19;;;23.01;64.30
25156;BME280;21913;52.456;13.634;2022-08-18T18:04:11;99923.56;;;23.01;64.41
25156;BME280;21913;52.456;13.634;2022-08-18T18:14:37;99928.84;;;23.01;64.39
25156;BME280;21913;52.456;13.634;2022-08-18T18:19:44;99927.13;;;23.00;64.37
25156;BME280;21913;52.456;13.634;2022-08-18T18:24:50;99928.84;;;23.01;64.45
25156;BME280;21913;52.456;13.634;2022-08-18T18:30:03;99932.41;;;23.00;64.84
25156;BME280;21913;52.456;13.634;2022-08-18T18:35:08;99926.34;;;22.98;65.24
25156;BME280;21913;52.456;13.634;2022-08-18T18:45:26;99945.59;;;23.00;65.00
25156;BME280;21913;52.456;13.634;2022-08-18T18:56:00;99950.09;;;22.98;65.05
25156;BME280;21913;52.456;13.634;2022-08-18T19:01:15;99952.72;;;22.98;64.91
25156;BME280;21913;52.456;13.634;2022-08-18T19:06:26;99963.28;;;22.98;64.86
25156;BME280;21913;52.456;13.634;2022-08-18T19:11:57;99960.63;;;22.98;65.19
25156;BME280;21913;52.456;13.634;2022-08-18T19:17:23;99960.63;;;22.98;64.92
25156;BME280;21913;52.456;13.634;2022-08-18T19:22:56;99973.91;;;22.97;65.08
25156;BME280;21913;52.456;13.634;2022-08-18T19:33:10;99971.38;;;22.95;64.95
25156;BME280;21913;52.456;13.634;2022-08-18T19:59:48;99963.50;;;22.94;65.01
25156;BME280;21913;52.456;13.634;2022-08-18T20:05:16;99959.19;;;22.93;65.05
25156;BME280;21913;52.456;13.634;2022-08-18T20:10:30;99960.03;;;22.93;64.95
25156;BME280;21913;52.456;13.634;2022-08-18T20:15:56;99968.88;;;22.92;65.01
25156;BME280;21913;52.456;13.634;2022-08-18T20:36:51;99968.97;;;22.91;65.00
25156;BME280;21913;52.456;13.634;2022-08-18T20:41:54;99963.69;;;22.91;64.98
25156;BME280;21913;52.456;13.634;2022-08-18T20:52:36;99965.38;;;22.92;65.05
25156;BME280;21913;52.456;13.634;2022-08-18T20:57:39;99962.00;;;22.90;65.25
25156;BME280;21913;52.456;13.634;2022-08-18T21:02:50;99965.47;;;22.90;65.13
25156;BME280;21913;52.456;13.634;2022-08-18T21:13:08;99957.56;;;22.90;65.34
25156;BME280;21913;52.456;13.634;2022-08-18T21:18:18;99964.63;;;22.90;65.28
25156;BME280;21913;52.456;13.634;2022-08-18T21:23:50;99973.38;;;22.90;65.17
25156;BME280;21913;52.456;13.634;2022-08-18T21:28:55;99977.81;;;22.90;65.20
25156;BME280;21913;52.456;13.634;2022-08-18T21:33:59;99979.59;;;22.89;65.27
25156;BME280;21913;52.456;13.634;2022-08-18T21:39:09;99989.22;;;22.90;65.28
25156;BME280;21913;52.456;13.634;2022-08-18T21:49:36;99977.03;;;22.88;65.30
25156;BME280;21913;52.456;13.634;2022-08-18T21:54:37;99985.78;;;22.88;65.34
25156;BME280;21913;52.456;13.634;2022-08-18T22:05:42;100008.69;;;22.88;65.33
25156;BME280;21913;52.456;13.634;2022-08-18T22:11:07;100005.16;;;22.87;65.31
25156;BME280;21913;52.456;13.634;2022-08-18T22:16:31;99991.13;;;22.87;65.34
25156;BME280;21913;52.456;13.634;2022-08-18T22:21:39;99994.59;;;22.87;65.19
25156;BME280;21913;52.456;13.634;2022-08-18T22:26:41;100001.66;;;22.87;65.54
25156;BME280;21913;52.456;13.634;2022-08-18T22:31:46;99998.19;;;22.86;65.29
25156;BME280;21913;52.456;13.634;2022-08-18T22:36:55;99998.19;;;22.86;65.44
25156;BME280;21913;52.456;13.634;2022-08-18T22:41:57;100007.88;;;22.86;65.23
25156;BME280;21913;52.456;13.634;2022-08-18T22:47:01;99999.13;;;22.85;65.60
25156;BME280;21913;52.456;13.634;2022-08-18T22:52:27;100000.81;;;22.86;65.57
25156;BME280;21913;52.456;13.634;2022-08-18T22:57:26;99995.63;;;22.84;65.48
25156;BME280;21913;52.456;13.634;2022-08-18T23:02:28;100000.06;;;22.84;65.80
25156;BME280;21913;52.456;13.634;2022-08-18T23:07:29;100003.53;;;22.84;65.46
25156;BME280;21913;52.456;13.634;2022-08-18T23:12:31;99994.78;;;22.84;65.67
25156;BME280;21913;52.456;13.634;2022-08-18T23:17:33;99995.63;;;22.84;65.57
25156;BME280;21913;52.456;13.634;2022-08-18T23:22:34;100008.88;;;22.83;65.65
25156;BME280;21913;52.456;13.634;2022-08-18T23:27:36;100010.59;;;22.84;65.53
25156;BME280;21913;52.456;13.634;2022-08-18T23:32:38;100007.13;;;22.83;65.47
25156;BME280;21913;52.456;13.634;2022-08-18T23:37:40;100014.16;;;22.83;65.73
25156;BME280;21913;52.456;13.634;2022-08-18T23:42:41;100018.56;;;22.82;65.44
25156;BME280;21913;52.456;13.634;2022-08-18T23:47:43;100022.06;;;22.83;65.86
25156;BME280;21913;52.456;13.634;2022-08-18T23:52:44;100029.13;;;22.82;65.62
25156;BME280;21913;52.456;13.634;2022-08-18T23:57:46;100020.38;;;22.82;65.63
